Weather reports worldwide

Advertisment
Chateau Chinon, France (7270): temperature & dewpoint: 16.07.2019 04:00:00 - 22.07.2019 04:00:00 (CEST)Chateau Chinon, France (7270): wind speed & gusts: 16.07.2019 04:00:00 - 22.07.2019 04:00:00 (CEST)Chateau Chinon, France (7270): wind direction: 16.07.2019 04:00:00 - 22.07.2019 04:00:00 (CEST)Chateau Chinon, France (7270): precipitation: 16.07.2019 04:00:00 - 22.07.2019 04:00:00 (CEST)
Date & Time tt [°C] td [°C] ff [km/h] ff [kn] fx [km/h] fx [kn] dd rr [mm]
22.07.2019 04:00:00 - - - - - - - -
22.07.2019 03:00:00 18,0 12,0 4 2 16 9 E 0,0
22.07.2019 02:00:00 18,3 11,8 2 1 24 13 E -
22.07.2019 01:00:00 19,3 12,1 5 3 28 15 E 0,0
22.07.2019 00:00:00 19,0 10,5 4 2 16 9 ENE 0,0
21.07.2019 23:00:00 20,5 10,9 4 2 9 5 E 0,0
21.07.2019 22:00:00 20,4 10,2 2 1 11 6 NW 0,0
21.07.2019 21:00:00 22,4 10,5 2 1 8 4 WNW 0,0
21.07.2019 20:00:00 25,3 11,5 0 0 9 5 N -
21.07.2019 19:00:00 28,3 10,9 4 2 15 8 NNW 0,0
21.07.2019 18:00:00 29,0 10,2 4 2 16 9 N 0,0
21.07.2019 17:00:00 28,9 11,5 4 2 18 10 WNW 0,0
21.07.2019 16:00:00 27,8 12,6 5 3 22 12 WSW 0,0
21.07.2019 15:00:00 27,7 12,9 4 2 18 10 W 0,0
21.07.2019 14:00:00 26,2 14,3 8 4 22 12 WSW -
21.07.2019 13:00:00 24,8 14,0 4 2 22 12 NW 0,0
21.07.2019 12:00:00 24,9 15,0 4 2 18 10 WSW 0,0
21.07.2019 11:00:00 23,8 15,3 4 2 18 10 NNW 0,0
21.07.2019 10:00:00 22,9 15,2 4 2 13 7 NW 0,0
21.07.2019 09:00:00 20,5 15,7 2 1 9 5 NW 0,0
21.07.2019 08:00:00 20,6 15,6 0 0 8 4 N -
21.07.2019 07:00:00 17,9 15,0 2 1 8 4 W 0,0
21.07.2019 06:00:00 17,9 14,6 0 0 9 5 N 0,0
21.07.2019 05:00:00 18,5 14,6 0 0 8 4 N 0,0
21.07.2019 04:00:00 19,0 14,5 2 1 9 5 WNW 0,0
21.07.2019 03:00:00 19,3 14,5 2 1 5 3 ENE 0,0
21.07.2019 02:00:00 19,8 14,6 0 0 9 5 N -
21.07.2019 01:00:00 20,6 14,3 2 1 11 6 NNE 0,0
21.07.2019 00:00:00 20,8 14,7 0 0 13 7 N 0,0
20.07.2019 23:00:00 21,5 14,4 0 0 9 5 N 0,0
20.07.2019 22:00:00 22,1 15,0 2 1 13 7 E 0,0
20.07.2019 21:00:00 22,9 16,2 0 0 21 11 N 0,0
20.07.2019 20:00:00 24,7 16,4 2 1 15 8 N -
20.07.2019 19:00:00 25,7 16,0 2 1 16 9 N 0,0
20.07.2019 18:00:00 27,5 15,5 4 2 15 8 NNE 0,0
20.07.2019 17:00:00 28,0 15,0 2 1 18 10 NW 0,0
20.07.2019 16:00:00 29,7 14,7 4 2 22 12 WSW 0,0
20.07.2019 15:00:00 28,3 14,5 8 4 35 19 SW 0,0
20.07.2019 14:00:00 27,2 14,6 8 4 29 16 SSW -
20.07.2019 13:00:00 24,4 14,2 8 4 39 21 SW 0,0
20.07.2019 12:00:00 22,7 13,7 8 4 35 19 SW 0,0
20.07.2019 11:00:00 25,0 13,5 8 4 28 15 WSW 0,0
20.07.2019 10:00:00 20,0 13,5 5 3 22 12 W 0,0
20.07.2019 09:00:00 20,6 12,6 5 3 37 20 SW 0,0
20.07.2019 08:00:00 21,6 11,9 13 7 41 22 SW -
20.07.2019 07:00:00 20,0 11,7 13 7 37 20 SW 0,0
20.07.2019 06:00:00 20,8 11,7 18 10 39 21 SSW 0,0
20.07.2019 05:00:00 21,3 11,6 11 6 29 16 SSW 0,0
20.07.2019 04:00:00 20,0 11,7 8 4 26 14 ESE 0,0
20.07.2019 03:00:00 18,6 12,1 5 3 18 10 E 0,0
20.07.2019 02:00:00 18,3 12,1 4 2 16 9 E -
20.07.2019 01:00:00 18,2 12,0 4 2 15 8 E 0,0
20.07.2019 00:00:00 18,3 12,3 4 2 13 7 E 0,0
19.07.2019 23:00:00 18,6 12,6 4 2 9 5 ESE 0,0
19.07.2019 22:00:00 19,8 12,5 0 0 5 3 N 0,0
19.07.2019 21:00:00 21,5 12,1 0 0 8 4 N 0,0
19.07.2019 20:00:00 23,9 11,6 2 1 13 7 ESE -
19.07.2019 19:00:00 26,6 13,0 4 2 21 11 NW 0,0
19.07.2019 18:00:00 26,4 13,2 5 3 22 12 WSW 0,0
19.07.2019 17:00:00 26,7 12,7 4 2 24 13 WNW 0,0
19.07.2019 16:00:00 25,8 13,0 4 2 29 16 W 0,0
19.07.2019 15:00:00 25,6 14,1 4 2 18 10 N 0,0
19.07.2019 14:00:00 23,0 14,0 4 2 26 14 W -
19.07.2019 13:00:00 22,6 13,9 8 4 22 12 SSW 0,0
19.07.2019 12:00:00 19,7 14,1 4 2 16 9 SW 0,0
19.07.2019 11:00:00 20,2 15,0 4 2 15 8 WSW 0,0
19.07.2019 10:00:00 17,4 14,1 2 1 15 8 SW 0,0
19.07.2019 09:00:00 17,6 13,5 2 1 15 8 W 0,0
19.07.2019 08:00:00 17,7 14,0 0 0 9 5 N -
19.07.2019 07:00:00 14,8 12,8 4 2 9 5 SSW 0,0
19.07.2019 06:00:00 14,6 12,3 0 0 8 4 N 0,0
19.07.2019 05:00:00 13,4 11,6 0 0 9 5 N 0,0
19.07.2019 04:00:00 13,7 11,0 0 0 11 6 N 0,0
19.07.2019 03:00:00 15,4 10,8 0 0 15 8 N 0,0
19.07.2019 02:00:00 16,6 10,9 2 1 16 9 NNW -
19.07.2019 01:00:00 16,1 10,4 4 2 11 6 NNE 0,0
19.07.2019 00:00:00 16,4 10,3 2 1 11 6 NE 0,0
18.07.2019 23:00:00 17,8 9,9 4 2 15 8 N 0,0
18.07.2019 22:00:00 17,8 9,9 2 1 18 10 NE 0,0
18.07.2019 21:00:00 19,8 10,8 2 1 13 7 NNE 0,0
18.07.2019 20:00:00 21,3 11,9 2 1 16 9 ENE -
18.07.2019 19:00:00 23,9 11,9 4 2 22 12 NE 0,0
18.07.2019 18:00:00 24,7 12,3 4 2 28 15 NNW 0,0
18.07.2019 17:00:00 24,0 12,6 4 2 21 11 N 0,0
18.07.2019 16:00:00 24,4 13,9 4 2 21 11 N 0,0
18.07.2019 15:00:00 23,2 13,1 4 2 18 10 W 0,0
18.07.2019 14:00:00 22,1 12,9 4 2 21 11 N -
18.07.2019 13:00:00 21,4 14,3 4 2 29 16 N 0,0
18.07.2019 12:00:00 21,0 13,2 4 2 21 11 NNW 0,0
18.07.2019 11:00:00 20,3 13,3 4 2 28 15 N 0,0
18.07.2019 10:00:00 18,7 12,4 4 2 22 12 WSW 0,0
18.07.2019 09:00:00 17,2 11,7 2 1 18 10 S 0,0
18.07.2019 08:00:00 15,5 10,9 4 2 24 13 W -
18.07.2019 07:00:00 14,9 10,3 8 4 22 12 SW 0,0
18.07.2019 06:00:00 15,4 10,2 8 4 22 12 SW 0,0
18.07.2019 05:00:00 15,8 10,3 5 3 18 10 SW 0,0
18.07.2019 04:00:00 16,2 9,8 4 2 22 12 SW 0,0
18.07.2019 03:00:00 18,1 7,8 8 4 21 11 SW 0,0
18.07.2019 02:00:00 17,4 6,9 4 2 13 7 SE -
18.07.2019 01:00:00 18,0 7,1 4 2 9 5 SE 0,0
18.07.2019 00:00:00 19,2 7,6 4 2 11 6 ESE 0,0
17.07.2019 23:00:00 19,6 8,0 4 2 9 5 SE 0,0
17.07.2019 22:00:00 19,8 7,8 2 1 13 7 NNE 0,0
17.07.2019 21:00:00 21,3 7,9 4 2 15 8 WNW 0,0
17.07.2019 20:00:00 23,8 8,6 4 2 16 9 NW -
17.07.2019 19:00:00 25,6 7,7 4 2 15 8 NW 0,0
17.07.2019 18:00:00 26,6 7,6 4 2 22 12 NW 0,0
17.07.2019 17:00:00 27,9 6,6 4 2 21 11 WNW 0,0
17.07.2019 16:00:00 26,4 7,4 4 2 16 9 N 0,0
17.07.2019 15:00:00 26,0 6,1 8 4 22 12 NE 0,0
17.07.2019 14:00:00 26,3 8,7 4 2 18 10 NNW -
17.07.2019 13:00:00 - - - - - - - -
17.07.2019 12:00:00 23,1 8,8 4 2 18 10 N 0,0
17.07.2019 11:00:00 21,2 8,1 5 3 16 9 N 0,0
17.07.2019 10:00:00 21,0 8,9 5 3 15 8 N 0,0
17.07.2019 09:00:00 20,6 9,2 2 1 9 5 ESE 0,0
17.07.2019 08:00:00 18,8 10,4 4 2 11 6 ESE -
17.07.2019 07:00:00 13,9 7,9 4 2 15 8 ESE 0,0
17.07.2019 06:00:00 13,3 7,3 4 2 18 10 E 0,0
17.07.2019 05:00:00 13,0 7,4 4 2 16 9 E 0,0
17.07.2019 04:00:00 13,2 7,0 4 2 13 7 E 0,0
17.07.2019 03:00:00 14,2 7,0 4 2 21 11 E 0,0
17.07.2019 02:00:00 15,5 7,3 5 3 22 12 E -
17.07.2019 01:00:00 15,2 7,5 4 2 22 12 E 0,0
17.07.2019 00:00:00 15,4 7,7 5 3 18 10 E 0,0
16.07.2019 23:00:00 16,9 7,3 4 2 15 8 E 0,0
16.07.2019 22:00:00 19,2 6,6 4 2 18 10 NNE 0,0
16.07.2019 21:00:00 20,7 7,0 4 2 13 7 NW 0,0
16.07.2019 20:00:00 23,1 8,4 4 2 21 11 NW -
16.07.2019 19:00:00 24,2 8,2 4 2 22 12 NW 0,0
16.07.2019 18:00:00 26,7 7,7 4 2 24 13 NNW 0,0
16.07.2019 17:00:00 26,8 8,7 4 2 21 11 NNW 0,0
16.07.2019 16:00:00 26,0 9,8 4 2 22 12 N 0,0
16.07.2019 15:00:00 26,0 10,6 4 2 21 11 N 0,0
16.07.2019 14:00:00 25,8 10,8 4 2 16 9 NNW -
16.07.2019 13:00:00 25,0 12,2 4 2 16 9 WSW 0,0
16.07.2019 12:00:00 23,9 11,2 4 2 13 7 N 0,0
16.07.2019 11:00:00 21,8 11,2 5 3 16 9 N 0,0
16.07.2019 10:00:00 20,8 10,6 4 2 18 10 NNE 0,0
16.07.2019 09:00:00 20,7 10,5 4 2 9 5 ENE 0,0
16.07.2019 08:00:00 18,4 11,5 4 2 11 6 E -
16.07.2019 07:00:00 12,8 9,6 4 2 11 6 E 0,0
16.07.2019 06:00:00 12,3 9,3 4 2 11 6 E 0,0
16.07.2019 05:00:00 12,7 9,1 4 2 28 15 E 0,0
16.07.2019 04:00:00 12,9 9,2 4 2 21 11 E 0,0

tt = temperature
td = dewpoint
ff = wind speed
fx = gusts
dd = wind direction
rr = precipitation

Next stations